createdAt,value
2022-08-06T00:00:06.607Z,15.76
2022-08-06T00:02:44.264Z,15.73
2022-08-06T00:05:17.821Z,15.70
2022-08-06T00:07:53.495Z,15.63
2022-08-06T00:10:29.293Z,15.56
2022-08-06T00:13:02.021Z,15.56
2022-08-06T00:16:09.662Z,15.51
2022-08-06T00:18:27.413Z,15.45
2022-08-06T00:20:57.140Z,15.43
2022-08-06T00:23:26.762Z,15.37
2022-08-06T00:25:56.648Z,15.37
2022-08-06T00:28:30.787Z,15.29
2022-08-06T00:31:06.265Z,15.27
2022-08-06T00:33:44.224Z,15.23
2022-08-06T00:36:28.560Z,15.20
2022-08-06T00:39:00.243Z,15.16
2022-08-06T00:41:41.814Z,15.15
2022-08-06T00:44:15.086Z,15.07
2022-08-06T00:46:47.905Z,14.99
2022-08-06T00:49:48.064Z,14.94
2022-08-06T00:52:09.832Z,14.89
2022-08-06T00:54:39.479Z,14.86
2022-08-06T00:57:12.071Z,14.82
2022-08-06T00:59:43.301Z,14.76
2022-08-06T01:02:16.581Z,14.76
2022-08-06T01:04:46.422Z,14.71
2022-08-06T01:07:16.825Z,14.68
2022-08-06T01:09:57.775Z,14.65
2022-08-06T01:12:33.780Z,14.61
2022-08-06T01:15:15.414Z,14.58
2022-08-06T01:17:58.084Z,14.53
2022-08-06T01:21:58.142Z,14.47
2022-08-06T01:23:54.704Z,14.43
2022-08-06T01:26:34.141Z,14.44
2022-08-06T01:29:09.674Z,14.39
2022-08-06T01:31:48.012Z,14.34
2022-08-06T01:34:25.511Z,14.30
2022-08-06T01:37:07.370Z,14.23
2022-08-06T01:39:53.515Z,14.25
2022-08-06T01:42:35.578Z,14.18
2022-08-06T01:45:11.989Z,14.14
2022-08-06T01:47:54.335Z,14.14
2022-08-06T01:50:30.307Z,14.13
2022-08-06T01:53:02.569Z,14.12
2022-08-06T01:55:56.619Z,14.03
2022-08-06T01:58:30.338Z,13.97
2022-08-06T02:01:07.217Z,13.99
2022-08-06T02:03:50.111Z,13.93
2022-08-06T02:06:32.477Z,13.92
2022-08-06T02:09:21.933Z,13.90
2022-08-06T02:15:58.944Z,13.81
2022-08-06T02:18:36.887Z,13.81
2022-08-06T02:21:19.479Z,13.78
2022-08-06T02:24:03.341Z,13.72
2022-08-06T02:26:34.278Z,13.69
2022-08-06T02:29:06.434Z,13.66
2022-08-06T02:31:50.736Z,13.64
2022-08-06T02:34:27.023Z,13.68
2022-08-06T02:37:01.275Z,13.60
2022-08-06T02:39:47.353Z,13.48
2022-08-06T02:42:25.991Z,13.44
2022-08-06T02:45:03.318Z,13.48
2022-08-06T02:47:55.572Z,13.42
2022-08-06T02:50:36.878Z,13.40
2022-08-06T02:53:23.633Z,13.38
2022-08-06T02:55:57.503Z,13.34
2022-08-06T02:58:38.634Z,13.29
2022-08-06T03:01:21.664Z,13.27
2022-08-06T03:03:59.123Z,13.25
2022-08-06T03:06:35.213Z,13.23
2022-08-06T03:09:07.091Z,13.18
2022-08-06T03:11:39.035Z,13.14
2022-08-06T03:14:31.718Z,13.14
2022-08-06T03:17:01.683Z,13.14
2022-08-06T03:19:57.710Z,13.08
2022-08-06T03:22:35.270Z,13.06
2022-08-06T03:25:10.925Z,13.02
2022-08-06T03:27:43.127Z,12.95
2022-08-06T03:30:33.008Z,12.97
2022-08-06T03:33:29.431Z,12.91
2022-08-06T03:36:00.789Z,12.94
2022-08-06T03:38:37.372Z,12.93
2022-08-06T03:41:08.018Z,12.84
2022-08-06T03:43:56.007Z,12.84
2022-08-06T03:46:30.795Z,12.84
2022-08-06T03:49:02.869Z,12.84
2022-08-06T03:51:52.822Z,12.80
2022-08-06T03:54:30.796Z,12.79
2022-08-06T03:57:08.515Z,12.78
2022-08-06T03:59:58.728Z,12.74
2022-08-06T04:02:45.971Z,12.70
2022-08-06T04:05:22.453Z,12.72
2022-08-06T04:07:56.714Z,12.70
2022-08-06T04:10:35.454Z,12.65
2022-08-06T04:14:03.570Z,12.63
2022-08-06T04:16:02.102Z,12.56
2022-08-06T04:18:34.260Z,12.58
2022-08-06T04:21:19.727Z,12.56
2022-08-06T04:23:51.196Z,12.55
2022-08-06T04:26:29.605Z,12.55
2022-08-06T04:29:00.739Z,12.54
2022-08-06T04:32:11.917Z,12.53
2022-08-06T04:34:27.304Z,12.51
2022-08-06T04:36:59.203Z,12.50
2022-08-06T04:39:37.957Z,12.47
2022-08-06T04:42:17.026Z,12.44
2022-08-06T04:44:59.532Z,12.41
2022-08-06T04:47:42.031Z,12.38
2022-08-06T04:50:17.754Z,12.37
2022-08-06T04:52:53.200Z,12.32
2022-08-06T04:55:33.331Z,12.31
2022-08-06T04:58:11.948Z,12.32
2022-08-06T05:00:59.620Z,12.32
2022-08-06T05:04:03.199Z,12.35
2022-08-06T05:06:24.649Z,12.36
2022-08-06T05:08:58.799Z,12.36
2022-08-06T05:11:34.771Z,12.35
2022-08-06T05:14:17.687Z,12.35
2022-08-06T05:16:53.746Z,12.35
2022-08-06T05:19:30.687Z,12.36
2022-08-06T05:22:10.784Z,12.35
2022-08-06T05:25:00.687Z,12.35
2022-08-06T05:27:54.227Z,12.33
2022-08-06T05:30:28.439Z,12.35
2022-08-06T05:32:59.331Z,12.32
2022-08-06T05:35:41.615Z,12.35
2022-08-06T05:38:31.430Z,12.39
2022-08-06T05:41:01.875Z,12.40
2022-08-06T05:43:57.681Z,12.40
2022-08-06T05:46:26.767Z,12.40
2022-08-06T05:49:12.292Z,12.44
2022-08-06T05:52:01.861Z,12.47
2022-08-06T05:54:39.184Z,12.49
2022-08-06T05:57:16.483Z,12.53
2022-08-06T05:59:56.915Z,12.56
2022-08-06T06:02:32.083Z,12.55
2022-08-06T06:06:04.821Z,12.59
2022-08-06T06:08:10.137Z,12.64
2022-08-06T06:10:53.207Z,12.67
2022-08-06T06:13:39.818Z,12.70
2022-08-06T06:16:22.131Z,12.74
2022-08-06T06:19:15.249Z,12.83
2022-08-06T06:21:52.503Z,12.87
2022-08-06T06:24:26.897Z,12.89
2022-08-06T06:27:02.542Z,12.93
2022-08-06T06:30:06.955Z,12.96
2022-08-06T06:32:42.584Z,12.99
2022-08-06T06:35:24.924Z,13.03
2022-08-06T06:38:01.836Z,13.11
2022-08-06T06:41:00.070Z,13.12
2022-08-06T06:43:43.751Z,13.15
2022-08-06T06:46:34.735Z,13.21
2022-08-06T06:49:53.154Z,13.25
2022-08-06T06:52:08.900Z,13.29
2022-08-06T06:54:42.581Z,13.35
2022-08-06T06:57:19.589Z,13.39
2022-08-06T07:00:04.305Z,13.41
2022-08-06T07:02:46.252Z,13.49
2022-08-06T07:05:17.751Z,13.59
2022-08-06T07:08:11.674Z,13.71
2022-08-06T07:10:43.775Z,13.78
2022-08-06T07:13:16.237Z,13.91
2022-08-06T07:15:54.505Z,14.05
2022-08-06T07:18:34.221Z,14.11
2022-08-06T07:21:05.594Z,14.28
2022-08-06T07:24:06.586Z,14.41
2022-08-06T07:26:28.117Z,14.51
2022-08-06T07:29:03.504Z,14.60
2022-08-06T07:31:36.459Z,14.72
2022-08-06T07:34:09.408Z,14.83
2022-08-06T07:36:41.551Z,14.96
2022-08-06T07:39:15.892Z,15.10
2022-08-06T07:42:07.709Z,15.25
2022-08-06T07:44:54.663Z,15.40
2022-08-06T07:47:41.245Z,15.58
2022-08-06T07:50:23.462Z,15.73
2022-08-06T07:52:55.073Z,15.90
2022-08-06T07:55:37.045Z,16.09
2022-08-06T07:58:10.946Z,16.31
2022-08-06T08:00:49.466Z,16.55
2022-08-06T08:03:55.924Z,16.75
2022-08-06T08:06:25.591Z,16.86
2022-08-06T08:08:58.321Z,16.87
2022-08-06T08:11:37.452Z,17.06
2022-08-06T08:14:24.731Z,17.16
2022-08-06T08:16:56.009Z,17.25
2022-08-06T08:19:34.484Z,17.26
2022-08-06T08:22:07.589Z,17.49
2022-08-06T08:24:39.472Z,17.65
2022-08-06T08:27:22.090Z,17.75
2022-08-06T08:29:56.645Z,17.92
2022-08-06T08:32:27.695Z,18.08
2022-08-06T08:34:57.845Z,18.22
2022-08-06T08:37:31.845Z,18.38
2022-08-06T08:40:02.342Z,18.45
2022-08-06T08:42:40.785Z,18.61
2022-08-06T08:45:13.060Z,18.73
2022-08-06T08:47:53.940Z,18.80
2022-08-06T08:50:30.165Z,18.95
2022-08-06T08:53:02.486Z,19.07
2022-08-06T08:57:07.165Z,19.16
2022-08-06T08:58:41.933Z,19.22
2022-08-06T09:01:51.479Z,19.38
2022-08-06T09:04:06.377Z,19.45
2022-08-06T09:06:37.175Z,19.56
2022-08-06T09:09:15.828Z,19.63
2022-08-06T09:12:04.290Z,19.74
2022-08-06T09:14:39.655Z,19.87
2022-08-06T09:17:14.378Z,20.04
2022-08-06T09:19:49.711Z,20.13
2022-08-06T09:22:19.357Z,20.17
2022-08-06T09:24:53.118Z,20.11
2022-08-06T09:27:46.845Z,20.18
2022-08-06T09:30:30.030Z,20.34
2022-08-06T09:33:04.333Z,20.48
2022-08-06T09:36:00.932Z,20.51
2022-08-06T09:38:32.973Z,20.62
2022-08-06T09:41:07.311Z,20.76
2022-08-06T09:44:03.401Z,20.79
2022-08-06T09:46:48.259Z,20.89
2022-08-06T09:49:48.323Z,21.01
2022-08-06T09:52:18.166Z,21.06
2022-08-06T09:54:53.308Z,21.10
2022-08-06T09:57:36.216Z,21.14
2022-08-06T10:00:14.308Z,21.21
2022-08-06T10:02:51.133Z,21.28
2022-08-06T10:05:23.116Z,21.38
2022-08-06T10:08:07.108Z,21.35
2022-08-06T10:10:56.757Z,21.53
2022-08-06T10:13:30.902Z,21.55
2022-08-06T10:16:28.953Z,21.66
2022-08-06T10:19:18.280Z,21.73
2022-08-06T10:21:49.191Z,21.66
2022-08-06T10:24:26.007Z,21.71
2022-08-06T10:27:24.821Z,21.70
2022-08-06T10:29:55.881Z,21.68
2022-08-06T10:32:30.655Z,21.74
2022-08-06T10:35:12.205Z,21.82
2022-08-06T10:37:47.816Z,21.92
2022-08-06T10:40:30.695Z,22.04
2022-08-06T10:43:01.975Z,22.24
2022-08-06T10:45:48.653Z,22.29
2022-08-06T10:49:00.986Z,22.33
2022-08-06T10:51:14.867Z,22.36
2022-08-06T10:54:01.206Z,22.28
2022-08-06T10:56:38.157Z,22.23
2022-08-06T10:59:15.376Z,22.14
2022-08-06T11:01:54.995Z,22.18
2022-08-06T11:04:37.315Z,22.26
2022-08-06T11:08:12.915Z,22.33
2022-08-06T11:10:40.468Z,22.45
2022-08-06T11:13:17.379Z,22.51
2022-08-06T11:15:47.865Z,22.52
2022-08-06T11:18:22.059Z,22.51
2022-08-06T11:21:01.152Z,22.48
2022-08-06T11:23:59.196Z,22.57
2022-08-06T11:26:44.274Z,22.51
2022-08-06T11:29:16.355Z,22.47
2022-08-06T11:31:56.879Z,22.42
2022-08-06T11:34:48.612Z,22.39
2022-08-06T11:38:03.772Z,22.31
2022-08-06T11:41:06.187Z,22.48
2022-08-06T11:44:07.824Z,22.53
2022-08-06T11:46:43.020Z,22.56
2022-08-06T11:49:25.387Z,22.54
2022-08-06T11:52:03.954Z,22.67
2022-08-06T11:54:38.453Z,22.72
2022-08-06T11:57:41.998Z,22.79
2022-08-06T12:00:22.239Z,22.76
2022-08-06T12:03:01.435Z,22.79
2022-08-06T12:05:56.707Z,22.72
2022-08-06T12:08:42.246Z,22.66
2022-08-06T12:11:29.307Z,22.74
2022-08-06T12:14:33.311Z,22.74
2022-08-06T12:17:02.588Z,22.88
2022-08-06T12:19:32.830Z,22.96
2022-08-06T12:22:03.461Z,22.92
2022-08-06T12:24:51.867Z,22.88
2022-08-06T12:27:25.048Z,22.78
2022-08-06T12:30:04.882Z,22.76
2022-08-06T12:32:45.817Z,22.71
2022-08-06T12:35:27.481Z,22.71
2022-08-06T12:37:57.451Z,22.72
2022-08-06T12:40:28.440Z,22.85
2022-08-06T12:43:15.380Z,22.98
2022-08-06T12:46:06.866Z,23.12
2022-08-06T12:48:41.237Z,23.19
2022-08-06T12:51:17.576Z,23.29
2022-08-06T12:53:53.038Z,23.33
2022-08-06T12:56:29.865Z,23.37
2022-08-06T12:59:05.223Z,23.32
2022-08-06T13:02:07.444Z,23.36
2022-08-06T13:04:31.718Z,23.37
2022-08-06T13:07:09.045Z,23.29
2022-08-06T13:10:08.344Z,23.20
2022-08-06T13:14:03.762Z,23.16
2022-08-06T13:15:24.318Z,23.10
2022-08-06T13:18:30.656Z,23.14
2022-08-06T13:21:02.795Z,23.21
2022-08-06T13:23:35.149Z,23.21
2022-08-06T13:26:25.825Z,23.29
2022-08-06T13:30:29.242Z,23.37
2022-08-06T13:32:19.519Z,23.39
2022-08-06T13:35:00.101Z,23.47
2022-08-06T13:37:54.299Z,23.50
2022-08-06T13:40:41.879Z,23.54
2022-08-06T13:43:39.178Z,23.71
2022-08-06T13:46:11.504Z,23.79
2022-08-06T13:48:46.294Z,23.95
2022-08-06T13:51:27.200Z,24.03
2022-08-06T13:54:03.922Z,23.87
2022-08-06T13:56:48.583Z,23.88
2022-08-06T13:59:39.766Z,23.84
2022-08-06T14:02:12.504Z,23.76
2022-08-06T14:04:50.285Z,23.65
2022-08-06T14:07:23.082Z,23.59
2022-08-06T14:10:09.913Z,23.54
2022-08-06T14:12:43.485Z,23.54
2022-08-06T14:15:14.896Z,23.40
2022-08-06T14:17:46.027Z,23.47
2022-08-06T14:20:19.285Z,23.51
2022-08-06T14:22:56.537Z,23.59
2022-08-06T14:25:28.634Z,23.56
2022-08-06T14:28:18.051Z,23.50
2022-08-06T14:30:52.179Z,23.58
2022-08-06T14:33:26.703Z,23.56
2022-08-06T14:36:07.881Z,23.63
2022-08-06T14:38:42.657Z,23.57
2022-08-06T14:41:50.181Z,23.51
2022-08-06T14:44:27.776Z,23.66
2022-08-06T14:46:59.801Z,23.77
2022-08-06T14:49:45.600Z,23.88
2022-08-06T14:52:24.193Z,23.90
2022-08-06T14:55:07.016Z,23.97
2022-08-06T14:57:56.574Z,24.02
2022-08-06T15:00:34.895Z,24.00
2022-08-06T15:03:07.854Z,23.96
2022-08-06T15:06:04.165Z,23.85
2022-08-06T15:08:32.996Z,23.80
2022-08-06T15:11:14.280Z,23.76
2022-08-06T15:13:51.887Z,23.61
2022-08-06T15:16:47.989Z,23.57
2022-08-06T15:19:28.319Z,23.56
2022-08-06T15:22:00.777Z,23.54
2022-08-06T15:24:31.180Z,23.54
2022-08-06T15:27:09.193Z,23.60
2022-08-06T15:29:39.027Z,23.52
2022-08-06T15:32:18.235Z,23.51
2022-08-06T15:34:50.117Z,23.60
2022-08-06T15:37:52.551Z,23.64
2022-08-06T15:40:13.088Z,23.42
2022-08-06T15:42:46.537Z,23.41
2022-08-06T15:45:49.836Z,23.57
2022-08-06T15:48:07.648Z,23.54
2022-08-06T15:50:44.833Z,23.56
2022-08-06T15:53:28.393Z,23.56
2022-08-06T15:56:00.540Z,23.52
2022-08-06T15:58:32.911Z,23.47
2022-08-06T16:01:05.214Z,23.48
2022-08-06T16:03:57.781Z,23.49
2022-08-06T16:06:28.491Z,23.51
2022-08-06T16:09:00.115Z,23.50
2022-08-06T16:11:48.065Z,23.43
2022-08-06T16:14:33.386Z,23.48
2022-08-06T16:17:10.052Z,23.39
2022-08-06T16:19:49.450Z,23.41
2022-08-06T16:22:22.069Z,23.42
2022-08-06T16:24:52.085Z,23.47
2022-08-06T16:27:22.200Z,23.51
2022-08-06T16:29:59.674Z,23.53
2022-08-06T16:32:30.104Z,23.55
2022-08-06T16:35:01.631Z,23.53
2022-08-06T16:37:33.279Z,23.61
2022-08-06T16:40:10.753Z,23.60
2022-08-06T16:42:41.380Z,23.57
2022-08-06T16:48:27.108Z,23.63
2022-08-06T16:50:54.482Z,23.56
2022-08-06T16:54:14.440Z,23.53
2022-08-06T16:56:22.099Z,23.47
2022-08-06T16:58:53.661Z,23.40
2022-08-06T17:02:14.863Z,23.33
2022-08-06T17:07:05.717Z,23.20
2022-08-06T17:09:48.202Z,23.22
2022-08-06T17:12:18.796Z,23.24
2022-08-06T17:14:52.671Z,23.23
2022-08-06T17:17:37.155Z,23.18
2022-08-06T17:20:15.840Z,23.11
2022-08-06T17:22:48.235Z,23.12
2022-08-06T17:25:22.033Z,23.04
2022-08-06T17:27:57.743Z,23.11
2022-08-06T17:30:28.213Z,23.09
2022-08-06T17:33:00.596Z,23.05
2022-08-06T17:36:29.927Z,22.99
2022-08-06T17:38:20.080Z,22.86
2022-08-06T17:42:29.091Z,23.62
2022-08-06T17:43:56.848Z,22.73
2022-08-06T17:46:29.776Z,22.69
2022-08-06T17:49:07.663Z,22.63
2022-08-06T17:51:37.493Z,22.52
2022-08-06T17:54:26.920Z,22.48
2022-08-06T17:57:01.595Z,22.41
2022-08-06T17:59:31.902Z,22.40
2022-08-06T18:02:02.889Z,22.40
2022-08-06T18:04:40.345Z,22.39
2022-08-06T18:07:25.771Z,22.31
2022-08-06T18:10:17.847Z,22.22
2022-08-06T18:12:48.538Z,22.19
2022-08-06T18:15:19.520Z,22.15
2022-08-06T18:18:04.051Z,22.05
2022-08-06T18:20:38.845Z,21.97
2022-08-06T18:23:21.344Z,21.94
2022-08-06T18:25:56.939Z,21.87
2022-08-06T18:28:33.376Z,21.80
2022-08-06T18:31:09.692Z,21.73
2022-08-06T18:33:42.600Z,21.66
2022-08-06T18:36:18.575Z,21.62
2022-08-06T18:39:03.166Z,21.53
2022-08-06T18:41:56.701Z,21.41
2022-08-06T18:44:27.821Z,21.38
2022-08-06T18:47:03.469Z,21.31
2022-08-06T18:49:50.682Z,21.24
2022-08-06T18:52:24.420Z,21.15
2022-08-06T18:54:58.020Z,21.07
2022-08-06T18:58:04.947Z,21.01
2022-08-06T19:00:21.119Z,20.98
2022-08-06T19:02:54.224Z,20.90
2022-08-06T19:05:28.117Z,20.82
2022-08-06T19:08:05.671Z,20.76
2022-08-06T19:10:36.211Z,20.67
2022-08-06T19:13:08.636Z,20.59
2022-08-06T19:15:46.308Z,20.49
2022-08-06T19:18:24.188Z,20.42
2022-08-06T19:20:55.753Z,20.29
2022-08-06T19:24:01.911Z,20.17
2022-08-06T19:26:21.016Z,20.07
2022-08-06T19:28:51.332Z,20.03
2022-08-06T19:31:42.255Z,19.92
2022-08-06T19:34:15.615Z,19.79
2022-08-06T19:36:48.342Z,19.75
2022-08-06T19:39:53.879Z,19.61
2022-08-06T19:42:32.645Z,19.64
2022-08-06T19:45:04.922Z,19.47
2022-08-06T19:47:47.192Z,19.51
2022-08-06T19:50:18.315Z,19.49
2022-08-06T19:52:49.940Z,19.47
2022-08-06T19:56:06.596Z,19.40
2022-08-06T19:58:25.831Z,19.35
2022-08-06T20:01:31.045Z,19.27
2022-08-06T20:03:59.438Z,19.14
2022-08-06T20:06:29.786Z,19.10
2022-08-06T20:09:27.102Z,19.04
2022-08-06T20:12:07.076Z,18.96
2022-08-06T20:14:37.341Z,18.89
2022-08-06T20:17:07.053Z,18.87
2022-08-06T20:20:07.381Z,18.77
2022-08-06T20:22:28.393Z,18.65
2022-08-06T20:24:58.074Z,18.62
2022-08-06T20:27:38.879Z,18.53
2022-08-06T20:30:20.896Z,18.44
2022-08-06T20:32:50.878Z,18.39
2022-08-06T20:35:27.056Z,18.20
2022-08-06T20:38:02.997Z,18.16
2022-08-06T20:41:26.202Z,18.07
2022-08-06T20:44:05.906Z,17.96
2022-08-06T20:46:22.552Z,17.93
2022-08-06T20:48:59.004Z,17.83
2022-08-06T20:51:29.416Z,17.80
2022-08-06T20:54:16.960Z,17.74
2022-08-06T20:56:49.196Z,17.70
2022-08-06T20:59:21.537Z,17.60
2022-08-06T21:02:03.365Z,17.54
2022-08-06T21:05:14.387Z,17.47
2022-08-06T21:07:36.928Z,17.45
2022-08-06T21:10:11.480Z,17.38
2022-08-06T21:12:44.911Z,17.38
2022-08-06T21:15:54.030Z,17.25
2022-08-06T21:18:22.032Z,17.19
2022-08-06T21:20:54.336Z,17.10
2022-08-06T21:23:55.367Z,17.04
2022-08-06T21:26:16.422Z,17.01
2022-08-06T21:28:52.429Z,16.97
2022-08-06T21:31:27.317Z,16.93
2022-08-06T21:33:57.614Z,16.94
2022-08-06T21:36:29.053Z,16.87
2022-08-06T21:38:59.564Z,16.73
2022-08-06T21:41:54.756Z,16.69
2022-08-06T21:44:27.675Z,16.63
2022-08-06T21:47:02.615Z,16.52
2022-08-06T21:50:04.237Z,16.50
2022-08-06T21:52:31.482Z,16.45
2022-08-06T21:55:05.451Z,16.43
2022-08-06T21:57:48.049Z,16.40
2022-08-06T22:00:39.669Z,16.32
2022-08-06T22:04:38.580Z,16.23
2022-08-06T22:06:20.100Z,16.16
2022-08-06T22:08:55.637Z,16.11
2022-08-06T22:12:36.634Z,16.05
2022-08-06T22:14:28.883Z,15.99
2022-08-06T22:17:05.835Z,15.90
2022-08-06T22:19:42.885Z,15.89
2022-08-06T22:22:13.482Z,15.84
2022-08-06T22:24:51.317Z,15.81
2022-08-06T22:27:21.687Z,15.77
2022-08-06T22:30:04.263Z,15.69
2022-08-06T22:32:36.218Z,15.60
2022-08-06T22:35:11.317Z,15.59
2022-08-06T22:38:16.589Z,15.56
2022-08-06T22:40:34.504Z,15.48
2022-08-06T22:43:17.161Z,15.44
2022-08-06T22:46:02.354Z,15.39
2022-08-06T22:48:36.376Z,15.35
2022-08-06T22:51:11.808Z,15.33
2022-08-06T22:54:30.034Z,15.29
2022-08-06T22:56:39.322Z,15.30
2022-08-06T22:59:18.696Z,15.24
2022-08-06T23:02:07.818Z,15.20
2022-08-06T23:04:46.416Z,15.17
2022-08-06T23:07:21.432Z,15.14
2022-08-06T23:09:58.816Z,15.07
2022-08-06T23:12:36.094Z,15.06
2022-08-06T23:15:30.019Z,14.99
2022-08-06T23:18:00.330Z,14.96
2022-08-06T23:20:32.766Z,14.90
2022-08-06T23:23:07.773Z,14.93
2022-08-06T23:25:59.477Z,14.92
2022-08-06T23:28:29.176Z,14.89
2022-08-06T23:30:59.028Z,14.85
2022-08-06T23:33:38.134Z,14.80
2022-08-06T23:36:14.807Z,14.71
2022-08-06T23:38:50.866Z,14.73
2022-08-06T23:41:24.437Z,14.66
2022-08-06T23:44:18.307Z,14.64
2022-08-06T23:46:50.843Z,14.62
2022-08-06T23:49:21.197Z,14.60
2022-08-06T23:52:03.145Z,14.52
2022-08-06T23:54:36.847Z,14.45
2022-08-06T23:57:09.774Z,14.40
2022-08-06T23:59:47.477Z,14.31
